Time;durP1;ratioP1;P1;durP2;ratioP2;P2;SDS_P1;SDS_P2;PMS_P1;PMS_P2;Temp;Humidity;BMP_temperature;BMP_pressure;BME280_temperature;BME280_humidity;BME280_pressure;Samples;Min_cycle;Max_cycle;Signal;HPM_P1;HPM_P2
2021/10/11 00:01:26;;;;;;;4.47;2.80;;;17.20;61.10;;;;;;20798774;28;80721;-72
2021/10/11 00:11:28;;;;;;;9.27;2.70;;;17.20;60.20;;;;;;20801426;28;81812;-71
2021/10/11 00:21:31;;;;;;;3.60;2.00;;;17.20;59.30;;;;;;20802821;28;80781;-72
2021/10/11 00:31:33;;;;;;;4.35;2.38;;;17.30;58.60;;;;;;20802182;28;80725;-71
2021/10/11 00:41:35;;;;;;;7.97;3.10;;;17.40;58.60;;;;;;20799822;28;81638;-71
2021/10/11 00:51:37;;;;;;;4.38;2.45;;;17.40;58.60;;;;;;20794969;28;80310;-70
2021/10/11 01:01:39;;;;;;;3.67;2.40;;;17.40;58.80;;;;;;20796373;28;80714;-70
2021/10/11 01:11:47;;;;;;;4.45;2.10;;;17.30;58.70;;;;;;20799903;28;80125;-70
2021/10/11 01:21:51;;;;;;;5.38;2.33;;;17.10;58.60;;;;;;20789961;28;81122;-71
2021/10/11 01:31:52;;;;;;;4.00;2.45;;;17.00;59.10;;;;;;20791755;28;80773;-71
2021/10/11 01:41:58;;;;;;;5.30;2.47;;;16.90;59.50;;;;;;20796735;28;82064;-70
2021/10/11 01:52:03;;;;;;;2.97;2.08;;;16.80;60.10;;;;;;20810492;28;80751;-71
2021/10/11 02:02:07;;;;;;;5.20;2.75;;;16.60;60.50;;;;;;20809095;28;81816;-70
2021/10/11 02:12:12;;;;;;;3.92;2.33;;;16.50;60.90;;;;;;20807763;28;80904;-71
2021/10/11 02:22:16;;;;;;;3.88;2.40;;;16.50;61.00;;;;;;20801225;28;82068;-71
2021/10/11 02:32:19;;;;;;;4.22;2.70;;;16.40;61.10;;;;;;20801557;28;80484;-71
2021/10/11 02:42:23;;;;;;;5.07;2.40;;;16.40;61.50;;;;;;20811169;28;80003;-71
2021/10/11 02:52:28;;;;;;;5.47;2.60;;;16.40;60.70;;;;;;20810568;28;79842;-70
2021/10/11 03:02:31;;;;;;;3.30;2.30;;;16.20;60.20;;;;;;20807039;28;80796;-70
2021/10/11 03:12:52;;;;;;;4.85;2.72;;;16.20;59.90;;;;;;20807039;28;82768;-71
2021/10/11 03:23:08;;;;;;;3.63;2.33;;;16.10;60.30;;;;;;20807692;28;80841;-71
2021/10/11 03:33:18;;;;;;;13.05;4.03;;;16.00;60.60;;;;;;20806759;28;81824;-71
2021/10/11 03:43:31;;;;;;;6.63;2.83;;;16.00;63.70;;;;;;20804733;28;80872;-71
2021/10/11 03:53:38;;;;;;;7.40;2.85;;;15.80;63.80;;;;;;20804967;28;80751;-71
2021/10/11 04:03:43;;;;;;;6.38;2.97;;;15.60;63.90;;;;;;20803921;28;80842;-71
2021/10/11 04:13:51;;;;;;;7.15;4.00;;;15.40;64.70;;;;;;20802532;28;80501;-71
2021/10/11 04:23:56;;;;;;;5.63;2.80;;;15.40;64.70;;;;;;20803707;28;80546;-71
2021/10/11 04:34:04;;;;;;;5.88;2.65;;;15.30;64.00;;;;;;20819949;28;80786;-70
2021/10/11 04:44:08;;;;;;;5.50;2.67;;;15.30;63.60;;;;;;20873317;28;81862;-71
2021/10/11 04:54:18;;;;;;;5.20;2.95;;;15.30;63.70;;;;;;20807232;28;80928;-71
2021/10/11 05:04:21;;;;;;;5.47;2.90;;;15.40;63.10;;;;;;20800185;28;80746;-71
2021/10/11 05:14:27;;;;;;;3.58;2.28;;;15.30;62.40;;;;;;20801985;28;80682;-72
2021/10/11 05:24:31;;;;;;;7.65;3.38;;;15.30;62.30;;;;;;20808955;28;80711;-71
2021/10/11 05:34:33;;;;;;;6.97;2.90;;;15.20;62.40;;;;;;20829444;28;81119;-68
2021/10/11 05:44:36;;;;;;;6.05;2.67;;;15.20;62.60;;;;;;20881408;27;81121;-68
2021/10/11 05:54:40;;;;;;;7.18;3.08;;;15.20;62.70;;;;;;20880484;27;83319;-69
2021/10/11 06:04:44;;;;;;;7.63;3.10;;;15.10;62.60;;;;;;20883791;27;80958;-69
2021/10/11 06:14:48;;;;;;;5.53;3.13;;;15.00;62.90;;;;;;20885609;27;80623;-70
2021/10/11 06:24:53;;;;;;;7.25;3.35;;;15.00;63.20;;;;;;20882079;27;81237;-63
2021/10/11 06:34:55;;;;;;;10.93;4.57;;;14.90;63.80;;;;;;20884082;27;81374;-65
2021/10/11 06:44:57;;;;;;;7.13;3.35;;;14.90;64.20;;;;;;20883794;27;81801;-66
2021/10/11 06:55:03;;;;;;;10.52;3.47;;;15.00;63.80;;;;;;20878141;28;81924;-63
2021/10/11 07:05:14;;;;;;;8.68;4.18;;;15.10;63.50;;;;;;20879114;27;81849;-64
2021/10/11 07:15:19;;;;;;;8.82;4.15;;;15.10;63.50;;;;;;20880424;27;81684;-63
2021/10/11 07:25:22;;;;;;;8.27;4.18;;;15.20;63.30;;;;;;20875314;27;81806;-63
2021/10/11 07:35:24;;;;;;;8.13;4.17;;;15.40;62.90;;;;;;20877616;27;80947;-64
2021/10/11 07:45:27;;;;;;;12.55;4.50;;;15.80;61.80;;;;;;20876970;28;81733;-63
2021/10/11 07:55:30;;;;;;;38.13;6.00;;;16.00;61.20;;;;;;20877239;28;80930;-62
2021/10/11 08:05:32;;;;;;;10.33;4.17;;;16.40;60.90;;;;;;20872094;28;81722;-63
2021/10/11 08:15:37;;;;;;;11.23;4.63;;;16.80;60.20;;;;;;20876236;27;81873;-62
2021/10/11 08:25:40;;;;;;;6.43;2.83;;;17.30;59.30;;;;;;20868100;28;81686;-63
2021/10/11 08:35:44;;;;;;;7.82;3.20;;;17.80;58.70;;;;;;20869825;27;81705;-65
2021/10/11 08:45:49;;;;;;;5.10;2.72;;;18.20;58.10;;;;;;20868513;27;80478;-70
2021/10/11 08:55:52;;;;;;;8.40;3.10;;;18.70;58.10;;;;;;20868506;28;81212;-65
2021/10/11 09:06:04;;;;;;;6.55;3.08;;;19.00;57.70;;;;;;20870851;28;81239;-65
2021/10/11 09:16:34;;;;;;;4.40;2.80;;;19.50;57.20;;;;;;20873814;27;80614;-63
2021/10/11 09:26:48;;;;;;;5.78;2.80;;;19.90;55.90;;;;;;20873301;27;81302;-65
2021/10/11 09:36:59;;;;;;;7.00;2.85;;;20.60;54.60;;;;;;20872670;27;81550;-65
2021/10/11 09:47:09;;;;;;;6.30;1.90;;;23.00;49.00;;;;;;20873061;27;80440;-65
2021/10/11 09:57:12;;;;;;;11.48;2.17;;;25.40;43.00;;;;;;20870657;27;80744;-63
2021/10/11 10:07:17;;;;;;;4.43;1.88;;;27.40;38.90;;;;;;20873609;27;81900;-65
2021/10/11 10:17:37;;;;;;;3.50;2.22;;;29.10;35.90;;;;;;20884082;28;81299;-64
2021/10/11 10:27:41;;;;;;;7.22;3.05;;;31.40;32.50;;;;;;20874125;27;80677;-64
2021/10/11 10:37:44;;;;;;;3.30;2.00;;;33.50;29.40;;;;;;20883727;27;82296;-66
2021/10/11 10:47:49;;;;;;;6.40;2.63;;;36.30;26.00;;;;;;20879854;27;81751;-63
2021/10/11 10:58:03;;;;;;;4.15;2.58;;;38.60;23.50;;;;;;20882867;28;83188;-64
2021/10/11 11:08:06;;;;;;;6.32;2.60;;;40.30;22.30;;;;;;20878800;28;81862;-65
2021/10/11 11:18:19;;;;;;;7.05;1.60;;;37.80;24.20;;;;;;20878357;27;81032;-63
2021/10/11 11:28:27;;;;;;;4.10;2.65;;;34.20;28.00;;;;;;20880581;27;80318;-65
2021/10/11 11:38:36;;;;;;;5.63;2.75;;;35.60;26.60;;;;;;20880613;28;81668;-67
2021/10/11 11:48:41;;;;;;;8.60;2.72;;;39.40;22.90;;;;;;20875565;27;82105;-64
2021/10/11 11:58:49;;;;;;;2.72;1.98;;;39.00;22.90;;;;;;20878557;27;82006;-68
2021/10/11 12:08:51;;;;;;;4.15;2.38;;;34.00;28.00;;;;;;20875161;27;81873;-65
2021/10/11 12:18:57;;;;;;;4.07;2.13;;;33.90;27.60;;;;;;20873994;27;81917;-66
2021/10/11 12:29:05;;;;;;;5.60;1.80;;;33.90;28.20;;;;;;20871988;27;81127;-67
2021/10/11 12:39:11;;;;;;;6.80;2.58;;;32.90;29.50;;;;;;20865496;28;81967;-67
2021/10/11 12:49:28;;;;;;;7.45;2.92;;;32.60;29.40;;;;;;20881360;27;80051;-72
2021/10/11 12:59:33;;;;;;;5.65;1.52;;;33.10;28.60;;;;;;20867966;28;80965;-69
2021/10/11 13:09:35;;;;;;;4.68;2.65;;;36.30;25.10;;;;;;20869770;27;81621;-69
2021/10/11 13:19:39;;;;;;;4.63;3.33;;;33.50;27.70;;;;;;20875729;27;81609;-69
2021/10/11 14:31:51;;;;;;;4.93;3.05;;;34.40;26.70;;;;;;20880612;28;82003;-70
2021/10/11 15:54:48;;;;;;;6.93;2.65;;;28.70;33.20;;;;;;20822904;28;82263;-69
2021/10/11 16:04:50;;;;;;;3.67;2.35;;;27.40;35.00;;;;;;20802707;28;81177;-67
2021/10/11 16:14:53;;;;;;;3.70;2.08;;;26.50;36.20;;;;;;20801202;28;80747;-70
2021/10/11 16:24:55;;;;;;;5.70;2.38;;;25.80;37.50;;;;;;20864800;27;81845;-68
2021/10/11 16:34:57;;;;;;;6.50;3.08;;;25.30;38.00;;;;;;20872743;28;81516;-70
2021/10/11 16:45:00;;;;;;;8.93;2.97;;;24.90;39.40;;;;;;20875702;27;80680;-70
2021/10/11 16:55:02;;;;;;;5.97;3.08;;;24.50;40.10;;;;;;20884387;28;82144;-65
2021/10/11 17:05:04;;;;;;;4.90;2.50;;;24.10;40.60;;;;;;20882789;27;79896;-66
2021/10/11 17:15:07;;;;;;;7.07;3.08;;;23.80;41.80;;;;;;20813152;27;79979;-71
2021/10/11 17:25:11;;;;;;;7.82;3.00;;;23.30;42.70;;;;;;20812702;28;81781;-68
2021/10/11 17:35:14;;;;;;;4.93;2.10;;;23.00;43.40;;;;;;20802874;28;80690;-70
2021/10/11 17:45:15;;;;;;;6.38;2.85;;;22.60;44.10;;;;;;20794508;28;81084;-75
2021/10/11 17:55:17;;;;;;;8.45;3.88;;;22.40;45.10;;;;;;20794773;28;81811;-73
2021/10/11 18:05:20;;;;;;;10.05;3.30;;;22.00;46.00;;;;;;20804594;28;83520;-72
2021/10/11 18:15:22;;;;;;;6.07;2.88;;;21.70;46.60;;;;;;20816123;28;81771;-71
2021/10/11 18:25:24;;;;;;;6.45;3.58;;;21.50;47.10;;;;;;20857381;28;80836;-71
2021/10/11 18:35:26;;;;;;;7.32;4.00;;;21.30;48.00;;;;;;20894510;27;80729;-71
2021/10/11 18:45:29;;;;;;;8.77;3.90;;;21.10;48.90;;;;;;20889726;27;81832;-72
2021/10/11 18:55:30;;;;;;;10.70;4.27;;;21.00;49.70;;;;;;20809644;28;81913;-71
2021/10/11 19:05:32;;;;;;;11.33;3.57;;;20.80;50.10;;;;;;20816273;28;82014;-72
2021/10/11 19:15:35;;;;;;;7.97;4.45;;;20.60;50.40;;;;;;20884863;27;81743;-72
2021/10/11 19:25:36;;;;;;;12.20;5.43;;;20.50;51.10;;;;;;20885991;27;80486;-73
2021/10/11 19:35:39;;;;;;;7.40;5.03;;;20.30;51.60;;;;;;20887728;27;81950;-73
2021/10/11 19:45:42;;;;;;;14.02;5.72;;;20.10;52.20;;;;;;20889423;27;80722;-72
2021/10/11 19:55:44;;;;;;;9.85;5.10;;;19.90;52.70;;;;;;20889349;28;79984;-72
2021/10/11 20:05:46;;;;;;;13.20;6.57;;;19.70;53.50;;;;;;20881063;27;80715;-72
2021/10/11 20:15:52;;;;;;;19.02;7.22;;;19.50;54.70;;;;;;20814464;28;80708;-73
2021/10/11 20:25:54;;;;;;;17.80;7.03;;;19.40;55.10;;;;;;20883869;27;80819;-73
2021/10/11 20:35:56;;;;;;;9.53;5.30;;;19.30;55.20;;;;;;20886018;28;81978;-72
2021/10/11 20:46:00;;;;;;;15.05;6.47;;;19.20;54.80;;;;;;20859757;27;81443;-74
2021/10/11 20:56:02;;;;;;;7.93;4.72;;;19.00;55.20;;;;;;20882446;27;82027;-74
2021/10/11 21:06:05;;;;;;;10.77;4.88;;;18.90;55.10;;;;;;20885492;28;82253;-72
2021/10/11 21:16:09;;;;;;;9.70;4.32;;;18.80;55.40;;;;;;20886128;27;80716;-72
2021/10/11 21:26:11;;;;;;;10.65;4.60;;;18.60;55.50;;;;;;20885755;27;81840;-73
2021/10/11 21:36:13;;;;;;;8.23;4.10;;;18.50;55.70;;;;;;20848619;27;81886;-73
2021/10/11 21:46:18;;;;;;;;;;;18.30;56.10;;;;;;20801919;28;80925;-71
2021/10/11 21:56:20;;;;;;;8.45;3.92;;;18.10;56.10;;;;;;20820380;28;81824;-72
2021/10/11 22:06:22;;;;;;;7.37;4.27;;;18.00;56.60;;;;;;20822537;27;79943;-72
2021/10/11 22:16:24;;;;;;;8.60;3.77;;;17.90;56.80;;;;;;20814174;28;81142;-71
2021/10/11 22:26:26;;;;;;;6.72;3.10;;;17.80;57.20;;;;;;20813568;28;80780;-74
2021/10/11 22:36:29;;;;;;;;;;;17.70;57.50;;;;;;20812991;28;80857;-73
2021/10/11 22:46:33;;;;;;;7.47;2.87;;;17.50;57.50;;;;;;20835239;28;81073;-73
2021/10/11 22:56:34;;;;;;;7.60;3.63;;;17.50;57.80;;;;;;20810424;28;80175;-73
2021/10/11 23:06:36;;;;;;;11.40;3.23;;;17.40;57.90;;;;;;20810419;28;80761;-74
2021/10/11 23:16:38;;;;;;;7.97;2.95;;;17.00;58.10;;;;;;20808415;28;80869;-73
2021/10/11 23:26:39;;;;;;;8.48;3.78;;;17.00;58.50;;;;;;20807463;28;81047;-73
2021/10/11 23:36:42;;;;;;;6.30;2.90;;;16.90;59.00;;;;;;20807251;28;80957;-73
2021/10/11 23:46:44;;;;;;;5.67;2.57;;;16.90;59.50;;;;;;20806068;28;81093;-72
2021/10/11 23:56:48;;;;;;;7.13;3.50;;;16.80;60.00;;;;;;20803619;28;80054;-70
